sensor_id;sensor_type;location;lat;lon;timestamp;pressure;altitude;pressure_sealevel;temperature;humidity
69784;BME280;57054;51.978;4.498;2023-02-14T00:01:49;103499.50;;;4.48;93.74
69784;BME280;57054;51.978;4.498;2023-02-14T00:04:16;103502.06;;;4.47;93.72
69784;BME280;57054;51.978;4.498;2023-02-14T00:06:42;103498.50;;;4.43;93.77
69784;BME280;57054;51.978;4.498;2023-02-14T00:09:11;103500.16;;;4.41;93.71
69784;BME280;57054;51.978;4.498;2023-02-14T00:11:37;103495.78;;;4.38;93.78
69784;BME280;57054;51.978;4.498;2023-02-14T00:14:02;103498.34;;;4.37;93.67
69784;BME280;57054;51.978;4.498;2023-02-14T00:16:47;103498.28;;;4.35;93.67
69784;BME280;57054;51.978;4.498;2023-02-14T00:19:14;103489.59;;;4.33;93.76
69784;BME280;57054;51.978;4.498;2023-02-14T00:21:40;103489.59;;;4.33;93.78
69784;BME280;57054;51.978;4.498;2023-02-14T00:24:09;103486.94;;;4.32;93.87
69784;BME280;57054;51.978;4.498;2023-02-14T00:26:35;103478.31;;;4.33;94.16
69784;BME280;57054;51.978;4.498;2023-02-14T00:29:03;103479.22;;;4.33;94.16
69784;BME280;57054;51.978;4.498;2023-02-14T00:31:29;103469.69;;;4.34;94.31
69784;BME280;57054;51.978;4.498;2023-02-14T00:33:54;103475.75;;;4.34;94.29
69784;BME280;57054;51.978;4.498;2023-02-14T00:36:20;103470.56;;;4.34;94.39
69784;BME280;57054;51.978;4.498;2023-02-14T00:38:45;103473.13;;;4.33;94.41
69784;BME280;57054;51.978;4.498;2023-02-14T00:41:11;103467.00;;;4.31;94.44
69784;BME280;57054;51.978;4.498;2023-02-14T00:43:47;103467.88;;;4.30;94.40
69784;BME280;57054;51.978;4.498;2023-02-14T00:46:13;103465.22;;;4.28;94.26
69784;BME280;57054;51.978;4.498;2023-02-14T00:48:39;103463.41;;;4.26;94.23
69784;BME280;57054;51.978;4.498;2023-02-14T00:51:05;103459.84;;;4.22;94.00
69784;BME280;57054;51.978;4.498;2023-02-14T00:53:31;103458.91;;;4.18;94.14
69784;BME280;57054;51.978;4.498;2023-02-14T00:55:56;103463.19;;;4.18;94.21
69784;BME280;57054;51.978;4.498;2023-02-14T00:58:22;103456.22;;;4.15;94.22
69784;BME280;57054;51.978;4.498;2023-02-14T01:00:47;103458.78;;;4.14;94.28
69784;BME280;57054;51.978;4.498;2023-02-14T01:03:12;103462.19;;;4.13;94.23
69784;BME280;57054;51.978;4.498;2023-02-14T01:05:38;103452.66;;;4.12;94.25
69784;BME280;57054;51.978;4.498;2023-02-14T01:08:03;103453.50;;;4.11;94.24
69784;BME280;57054;51.978;4.498;2023-02-14T01:10:29;103448.25;;;4.09;94.34
69784;BME280;57054;51.978;4.498;2023-02-14T01:12:54;103446.50;;;4.08;94.35
69784;BME280;57054;51.978;4.498;2023-02-14T01:15:20;103444.75;;;4.07;94.43
69784;BME280;57054;51.978;4.498;2023-02-14T01:17:45;103450.72;;;4.04;94.32
69784;BME280;57054;51.978;4.498;2023-02-14T01:20:10;103443.78;;;4.03;94.28
69784;BME280;57054;51.978;4.498;2023-02-14T01:22:36;103448.91;;;4.00;94.29
69784;BME280;57054;51.978;4.498;2023-02-14T01:25:02;103440.19;;;3.98;94.17
69784;BME280;57054;51.978;4.498;2023-02-14T01:27:28;103447.03;;;3.96;94.01
69784;BME280;57054;51.978;4.498;2023-02-14T01:29:53;103442.59;;;3.92;94.05
69784;BME280;57054;51.978;4.498;2023-02-14T01:32:18;103440.81;;;3.90;93.94
69784;BME280;57054;51.978;4.498;2023-02-14T01:34:44;103438.94;;;3.85;93.75
69784;BME280;57054;51.978;4.498;2023-02-14T01:37:09;103443.22;;;3.83;93.95
69784;BME280;57054;51.978;4.498;2023-02-14T01:39:34;103440.56;;;3.82;93.82
69784;BME280;57054;51.978;4.498;2023-02-14T01:42:00;103440.56;;;3.82;93.98
69784;BME280;57054;51.978;4.498;2023-02-14T01:46:51;103441.38;;;3.79;94.06
69784;BME280;57054;51.978;4.498;2023-02-14T01:49:24;103441.41;;;3.81;94.50
69784;BME280;57054;51.978;4.498;2023-02-14T01:51:57;103441.41;;;3.81;94.40
69784;BME280;57054;51.978;4.498;2023-02-14T01:54:25;103441.41;;;3.81;94.39
69784;BME280;57054;51.978;4.498;2023-02-14T01:56:56;103437.09;;;3.81;94.45
69784;BME280;57054;51.978;4.498;2023-02-14T01:59:27;103441.41;;;3.81;94.54
69784;BME280;57054;51.978;4.498;2023-02-14T02:05:08;103440.50;;;3.79;94.50
69784;BME280;57054;51.978;4.498;2023-02-14T02:07:35;103446.50;;;3.78;94.58
69784;BME280;57054;51.978;4.498;2023-02-14T02:10:03;103446.50;;;3.78;94.67
69784;BME280;57054;51.978;4.498;2023-02-14T02:12:29;103441.28;;;3.76;94.59
69784;BME280;57054;51.978;4.498;2023-02-14T02:14:55;103427.38;;;3.74;94.75
69784;BME280;57054;51.978;4.498;2023-02-14T02:23:00;103428.19;;;3.72;94.84
69784;BME280;57054;51.978;4.498;2023-02-14T02:40:08;103430.50;;;3.62;94.98
69784;BME280;57054;51.978;4.498;2023-02-14T02:45:48;103424.38;;;3.59;94.97
69784;BME280;57054;51.978;4.498;2023-02-14T02:48:39;103429.44;;;3.56;94.84
69784;BME280;57054;51.978;4.498;2023-02-14T02:51:09;103421.56;;;3.53;94.84
69784;BME280;57054;51.978;4.498;2023-02-14T02:54:24;103419.81;;;3.52;94.98
69784;BME280;57054;51.978;4.498;2023-02-14T02:56:53;103424.97;;;3.50;94.93
69784;BME280;57054;51.978;4.498;2023-02-14T03:01:51;103413.72;;;3.50;95.13
69784;BME280;57054;51.978;4.498;2023-02-14T03:04:19;103417.22;;;3.52;95.39
69784;BME280;57054;51.978;4.498;2023-02-14T03:07:04;103410.28;;;3.51;95.47
69784;BME280;57054;51.978;4.498;2023-02-14T03:09:53;103407.75;;;3.52;95.65
69784;BME280;57054;51.978;4.498;2023-02-14T03:12:38;103401.69;;;3.52;95.65
69784;BME280;57054;51.978;4.498;2023-02-14T03:24:10;103423.28;;;3.52;95.99
69784;BME280;57054;51.978;4.498;2023-02-14T03:26:49;103418.97;;;3.51;96.08
69784;BME280;57054;51.978;4.498;2023-02-14T03:29:26;103418.06;;;3.51;96.02
69784;BME280;57054;51.978;4.498;2023-02-14T03:34:33;103420.47;;;3.44;95.95
69784;BME280;57054;51.978;4.498;2023-02-14T03:37:04;103415.25;;;3.43;95.84
69784;BME280;57054;51.978;4.498;2023-02-14T03:39:44;103416.03;;;3.40;95.87
69784;BME280;57054;51.978;4.498;2023-02-14T03:42:18;103416.81;;;3.38;95.83
69784;BME280;57054;51.978;4.498;2023-02-14T03:44:48;103408.97;;;3.35;95.80
69784;BME280;57054;51.978;4.498;2023-02-14T03:47:18;103414.00;;;3.30;95.69
69784;BME280;57054;51.978;4.498;2023-02-14T03:49:58;103411.28;;;3.27;95.69
69784;BME280;57054;51.978;4.498;2023-02-14T03:52:28;103407.84;;;3.26;95.74
69784;BME280;57054;51.978;4.498;2023-02-14T03:54:56;103404.38;;;3.26;95.84
69784;BME280;57054;51.978;4.498;2023-02-14T03:57:31;103405.19;;;3.25;95.73
69784;BME280;57054;51.978;4.498;2023-02-14T03:59:59;103405.19;;;3.25;95.90
69784;BME280;57054;51.978;4.498;2023-02-14T04:02:38;103402.59;;;3.25;95.99
69784;BME280;57054;51.978;4.498;2023-02-14T04:05:14;103411.22;;;3.24;95.99
69784;BME280;57054;51.978;4.498;2023-02-14T04:07:52;103393.91;;;3.23;96.08
69784;BME280;57054;51.978;4.498;2023-02-14T04:10:18;103396.50;;;3.23;96.00
69784;BME280;57054;51.978;4.498;2023-02-14T04:12:45;103399.03;;;3.21;96.09
69784;BME280;57054;51.978;4.498;2023-02-14T04:15:12;103397.31;;;3.22;96.25
69784;BME280;57054;51.978;4.498;2023-02-14T04:17:38;103391.28;;;3.21;96.30
69784;BME280;57054;51.978;4.498;2023-02-14T04:20:22;103399.91;;;3.22;96.40
69784;BME280;57054;51.978;4.498;2023-02-14T04:22:47;103401.63;;;3.21;96.38
69784;BME280;57054;51.978;4.498;2023-02-14T04:25:13;103395.56;;;3.21;96.52
69784;BME280;57054;51.978;4.498;2023-02-14T04:27:39;103403.28;;;3.19;96.43
69784;BME280;57054;51.978;4.498;2023-02-14T04:30:05;103399.78;;;3.17;96.39
69784;BME280;57054;51.978;4.498;2023-02-14T04:32:30;103394.56;;;3.16;96.53
69784;BME280;57054;51.978;4.498;2023-02-14T04:34:56;103394.50;;;3.14;96.50
69784;BME280;57054;51.978;4.498;2023-02-14T04:37:21;103391.84;;;3.13;96.50
69784;BME280;57054;51.978;4.498;2023-02-14T04:39:47;103403.06;;;3.12;96.51
69784;BME280;57054;51.978;4.498;2023-02-14T04:42:12;103395.25;;;3.10;96.67
69784;BME280;57054;51.978;4.498;2023-02-14T04:44:38;103395.25;;;3.10;96.65
69784;BME280;57054;51.978;4.498;2023-02-14T04:47:04;103396.06;;;3.09;96.64
69784;BME280;57054;51.978;4.498;2023-02-14T04:49:30;103397.84;;;3.10;96.63
69784;BME280;57054;51.978;4.498;2023-02-14T04:51:55;103400.38;;;3.08;96.67
69784;BME280;57054;51.978;4.498;2023-02-14T04:54:21;103391.72;;;3.08;96.75
69784;BME280;57054;51.978;4.498;2023-02-14T04:56:47;103398.63;;;3.07;96.87
69784;BME280;57054;51.978;4.498;2023-02-14T04:59:12;103399.44;;;3.06;96.79
69784;BME280;57054;51.978;4.498;2023-02-14T05:01:39;103404.63;;;3.06;96.80
69784;BME280;57054;51.978;4.498;2023-02-14T05:04:05;103399.38;;;3.05;96.83
69784;BME280;57054;51.978;4.498;2023-02-14T05:06:30;103404.56;;;3.05;96.87
69784;BME280;57054;51.978;4.498;2023-02-14T05:08:57;103395.94;;;3.04;96.81
69784;BME280;57054;51.978;4.498;2023-02-14T05:11:22;103402.84;;;3.04;96.72
69784;BME280;57054;51.978;4.498;2023-02-14T05:13:48;103400.19;;;3.02;96.88
69784;BME280;57054;51.978;4.498;2023-02-14T05:16:13;103404.44;;;3.00;96.88
69784;BME280;57054;51.978;4.498;2023-02-14T05:18:39;103399.22;;;2.99;96.89
69784;BME280;57054;51.978;4.498;2023-02-14T05:21:04;103395.69;;;2.97;96.84
69784;BME280;57054;51.978;4.498;2023-02-14T05:23:30;103393.06;;;2.95;96.90
69784;BME280;57054;51.978;4.498;2023-02-14T05:25:55;103397.31;;;2.95;96.98
69784;BME280;57054;51.978;4.498;2023-02-14T05:28:21;103394.72;;;2.93;97.13
69784;BME280;57054;51.978;4.498;2023-02-14T05:30:46;103396.41;;;2.93;97.06
69784;BME280;57054;51.978;4.498;2023-02-14T05:33:11;103395.53;;;2.92;96.96
69784;BME280;57054;51.978;4.498;2023-02-14T05:35:37;103390.31;;;2.91;97.13
69784;BME280;57054;51.978;4.498;2023-02-14T05:38:03;103388.56;;;2.90;96.99
69784;BME280;57054;51.978;4.498;2023-02-14T05:40:28;103389.38;;;2.88;97.11
69784;BME280;57054;51.978;4.498;2023-02-14T05:42:54;103393.69;;;2.88;97.15
69784;BME280;57054;51.978;4.498;2023-02-14T05:45:20;103391.09;;;2.88;97.22
69784;BME280;57054;51.978;4.498;2023-02-14T05:47:47;103388.50;;;2.88;97.25
69784;BME280;57054;51.978;4.498;2023-02-14T05:50:13;103385.06;;;2.87;97.14
69784;BME280;57054;51.978;4.498;2023-02-14T05:52:38;103389.31;;;2.87;97.20
69784;BME280;57054;51.978;4.498;2023-02-14T05:55:04;103385.81;;;2.85;97.22
69784;BME280;57054;51.978;4.498;2023-02-14T05:57:29;103385.81;;;2.85;97.22
69784;BME280;57054;51.978;4.498;2023-02-14T05:59:55;103378.00;;;2.83;97.28
69784;BME280;57054;51.978;4.498;2023-02-14T06:02:20;103386.59;;;2.82;97.38
69784;BME280;57054;51.978;4.498;2023-02-14T06:04:46;103389.19;;;2.82;97.46
69784;BME280;57054;51.978;4.498;2023-02-14T06:07:11;103377.94;;;2.82;97.41
69784;BME280;57054;51.978;4.498;2023-02-14T06:09:37;103375.34;;;2.82;97.45
69784;BME280;57054;51.978;4.498;2023-02-14T06:12:02;103375.34;;;2.80;97.51
69784;BME280;57054;51.978;4.498;2023-02-14T06:14:28;103389.09;;;2.79;97.35
69784;BME280;57054;51.978;4.498;2023-02-14T06:16:53;103376.16;;;2.79;97.42
69784;BME280;57054;51.978;4.498;2023-02-14T06:19:19;103383.91;;;2.79;97.58
69784;BME280;57054;51.978;4.498;2023-02-14T06:21:45;103379.53;;;2.78;97.53
69784;BME280;57054;51.978;4.498;2023-02-14T06:24:11;103381.25;;;2.78;97.53
69784;BME280;57054;51.978;4.498;2023-02-14T06:26:36;103383.84;;;2.78;97.53
69784;BME280;57054;51.978;4.498;2023-02-14T06:29:02;103383.81;;;2.76;97.57
69784;BME280;57054;51.978;4.498;2023-02-14T06:31:28;103386.38;;;2.76;97.53
69784;BME280;57054;51.978;4.498;2023-02-14T06:33:54;103388.09;;;2.76;97.70
69784;BME280;57054;51.978;4.498;2023-02-14T06:36:20;103391.50;;;2.75;97.62
69784;BME280;57054;51.978;4.498;2023-02-14T06:38:46;103386.31;;;2.73;97.69
69784;BME280;57054;51.978;4.498;2023-02-14T06:41:12;103394.88;;;2.72;97.81
69784;BME280;57054;51.978;4.498;2023-02-14T06:43:39;103388.78;;;2.70;97.87
69784;BME280;57054;51.978;4.498;2023-02-14T06:46:04;103381.03;;;2.70;97.77
69784;BME280;57054;51.978;4.498;2023-02-14T06:48:30;103391.38;;;2.70;97.84
69784;BME280;57054;51.978;4.498;2023-02-14T06:50:55;103386.19;;;2.70;97.87
69784;BME280;57054;51.978;4.498;2023-02-14T06:53:21;103389.59;;;2.69;97.91
69784;BME280;57054;51.978;4.498;2023-02-14T06:55:46;103380.97;;;2.68;97.92
69784;BME280;57054;51.978;4.498;2023-02-14T06:58:12;103387.00;;;2.69;97.96
69784;BME280;57054;51.978;4.498;2023-02-14T07:00:37;103380.91;;;2.67;98.00
69784;BME280;57054;51.978;4.498;2023-02-14T07:03:04;103388.69;;;2.67;98.05
69784;BME280;57054;51.978;4.498;2023-02-14T07:05:30;103389.59;;;2.67;97.86
69784;BME280;57054;51.978;4.498;2023-02-14T07:07:56;103387.00;;;2.67;98.09
69784;BME280;57054;51.978;4.498;2023-02-14T07:10:21;103384.41;;;2.67;98.01
69784;BME280;57054;51.978;4.498;2023-02-14T07:12:47;103394.75;;;2.67;98.25
69784;BME280;57054;51.978;4.498;2023-02-14T07:15:12;103393.84;;;2.67;98.18
69784;BME280;57054;51.978;4.498;2023-02-14T07:17:38;103398.16;;;2.66;98.12
69784;BME280;57054;51.978;4.498;2023-02-14T07:20:04;103398.97;;;2.65;97.98
69784;BME280;57054;51.978;4.498;2023-02-14T07:22:31;103398.09;;;2.65;98.20
69784;BME280;57054;51.978;4.498;2023-02-14T07:24:56;103399.81;;;2.64;98.24
69784;BME280;57054;51.978;4.498;2023-02-14T07:27:22;103398.00;;;2.62;98.23
69784;BME280;57054;51.978;4.498;2023-02-14T07:29:47;103405.72;;;2.60;98.26
69784;BME280;57054;51.978;4.498;2023-02-14T07:32:13;103402.25;;;2.60;98.33
69784;BME280;57054;51.978;4.498;2023-02-14T07:34:38;103403.97;;;2.59;98.39
69784;BME280;57054;51.978;4.498;2023-02-14T07:37:03;103400.50;;;2.59;98.45
69784;BME280;57054;51.978;4.498;2023-02-14T07:39:29;103410.84;;;2.59;98.35
69784;BME280;57054;51.978;4.498;2023-02-14T07:41:54;103399.56;;;2.57;98.40
69784;BME280;57054;51.978;4.498;2023-02-14T07:44:19;103400.38;;;2.56;98.52
69784;BME280;57054;51.978;4.498;2023-02-14T07:46:45;103402.97;;;2.56;98.33
69784;BME280;57054;51.978;4.498;2023-02-14T07:49:10;103402.91;;;2.54;98.49
69784;BME280;57054;51.978;4.498;2023-02-14T07:51:36;103401.19;;;2.55;98.32
69784;BME280;57054;51.978;4.498;2023-02-14T07:54:01;103403.78;;;2.55;98.55
69784;BME280;57054;51.978;4.498;2023-02-14T07:56:27;103401.19;;;2.55;98.68
69784;BME280;57054;51.978;4.498;2023-02-14T07:58:52;103399.56;;;2.57;98.74
69784;BME280;57054;51.978;4.498;2023-02-14T08:01:18;103401.25;;;2.56;98.61
69784;BME280;57054;51.978;4.498;2023-02-14T08:03:45;103403.09;;;2.59;98.75
69784;BME280;57054;51.978;4.498;2023-02-14T08:06:14;103404.00;;;2.61;98.70
69784;BME280;57054;51.978;4.498;2023-02-14T08:08:40;103397.19;;;2.63;99.12
69784;BME280;57054;51.978;4.498;2023-02-14T08:11:05;103400.69;;;2.65;98.87
69784;BME280;57054;51.978;4.498;2023-02-14T08:13:30;103400.81;;;2.68;98.92
69784;BME280;57054;51.978;4.498;2023-02-14T08:15:56;103394.78;;;2.69;99.05
69784;BME280;57054;51.978;4.498;2023-02-14T08:18:40;103391.44;;;2.72;99.18
69784;BME280;57054;51.978;4.498;2023-02-14T08:21:07;103397.59;;;2.75;99.18
69784;BME280;57054;51.978;4.498;2023-02-14T08:23:33;103398.50;;;2.77;99.38
69784;BME280;57054;51.978;4.498;2023-02-14T08:25:59;103393.41;;;2.79;99.50
69784;BME280;57054;51.978;4.498;2023-02-14T08:28:25;103398.66;;;2.82;99.60
69784;BME280;57054;51.978;4.498;2023-02-14T08:30:51;103395.28;;;2.84;99.77
69784;BME280;57054;51.978;4.498;2023-02-14T08:33:17;103403.16;;;2.87;99.78
69784;BME280;57054;51.978;4.498;2023-02-14T08:35:42;103401.50;;;2.90;100.00
69784;BME280;57054;51.978;4.498;2023-02-14T08:38:09;103395.59;;;2.94;100.00
69784;BME280;57054;51.978;4.498;2023-02-14T08:40:34;103400.03;;;2.98;100.00
69784;BME280;57054;51.978;4.498;2023-02-14T08:43:02;103397.53;;;3.01;100.00
69784;BME280;57054;51.978;4.498;2023-02-14T08:45:27;103391.63;;;3.05;100.00
69784;BME280;57054;51.978;4.498;2023-02-14T08:47:53;103396.06;;;3.09;100.00
69784;BME280;57054;51.978;4.498;2023-02-14T08:50:18;103393.56;;;3.12;100.00
69784;BME280;57054;51.978;4.498;2023-02-14T08:52:44;103391.09;;;3.15;100.00
69784;BME280;57054;51.978;4.498;2023-02-14T08:55:11;103398.13;;;3.19;100.00
69784;BME280;57054;51.978;4.498;2023-02-14T08:57:38;103397.38;;;3.23;100.00
69784;BME280;57054;51.978;4.498;2023-02-14T09:00:04;103388.84;;;3.26;100.00
69784;BME280;57054;51.978;4.498;2023-02-14T09:02:36;103391.53;;;3.31;100.00
69784;BME280;57054;51.978;4.498;2023-02-14T09:05:02;103393.38;;;3.33;100.00
69784;BME280;57054;51.978;4.498;2023-02-14T09:07:27;103396.09;;;3.38;100.00
69784;BME280;57054;51.978;4.498;2023-02-14T09:09:53;103388.41;;;3.41;100.00
69784;BME280;57054;51.978;4.498;2023-02-14T09:12:18;103388.53;;;3.45;100.00
69784;BME280;57054;51.978;4.498;2023-02-14T09:14:44;103392.06;;;3.48;100.00
69784;BME280;57054;51.978;4.498;2023-02-14T09:17:13;103386.16;;;3.52;100.00
69784;BME280;57054;51.978;4.498;2023-02-14T09:19:39;103386.25;;;3.55;100.00
69784;BME280;57054;51.978;4.498;2023-02-14T09:22:06;103382.91;;;3.59;100.00
69784;BME280;57054;51.978;4.498;2023-02-14T09:24:34;103388.19;;;3.63;100.00
69784;BME280;57054;51.978;4.498;2023-02-14T09:27:00;103385.69;;;3.67;100.00
69784;BME280;57054;51.978;4.498;2023-02-14T09:29:26;103388.44;;;3.71;100.00
69784;BME280;57054;51.978;4.498;2023-02-14T09:31:57;103388.59;;;3.77;100.00
69784;BME280;57054;51.978;4.498;2023-02-14T09:34:24;103391.31;;;3.82;100.00
69784;BME280;57054;51.978;4.498;2023-02-14T09:37:10;103393.19;;;3.86;100.00
69784;BME280;57054;51.978;4.498;2023-02-14T09:39:36;103386.41;;;3.91;100.00
69784;BME280;57054;51.978;4.498;2023-02-14T09:44:55;103384.09;;;4.02;100.00
69784;BME280;57054;51.978;4.498;2023-02-14T09:47:48;103382.53;;;4.09;100.00
69784;BME280;57054;51.978;4.498;2023-02-14T09:50:34;103381.00;;;4.15;100.00
69784;BME280;57054;51.978;4.498;2023-02-14T09:53:06;103379.41;;;4.20;100.00
69784;BME280;57054;51.978;4.498;2023-02-14T09:55:50;103386.53;;;4.28;100.00
69784;BME280;57054;51.978;4.498;2023-02-14T09:58:24;103385.75;;;4.32;100.00
69784;BME280;57054;51.978;4.498;2023-02-14T10:01:10;103381.53;;;4.35;100.00
69784;BME280;57054;51.978;4.498;2023-02-14T10:03:46;103381.63;;;4.40;100.00
69784;BME280;57054;51.978;4.498;2023-02-14T10:11:37;103385.41;;;4.51;100.00
69784;BME280;57054;51.978;4.498;2023-02-14T10:14:11;103384.63;;;4.55;100.00
69784;BME280;57054;51.978;4.498;2023-02-14T10:16:46;103382.13;;;4.60;100.00
69784;BME280;57054;51.978;4.498;2023-02-14T10:19:25;103383.13;;;4.65;100.00
69784;BME280;57054;51.978;4.498;2023-02-14T10:21:57;103380.66;;;4.70;100.00
69784;BME280;57054;51.978;4.498;2023-02-14T10:24:47;103376.47;;;4.76;100.00
69784;BME280;57054;51.978;4.498;2023-02-14T10:29:56;103379.41;;;4.90;100.00
69784;BME280;57054;51.978;4.498;2023-02-14T10:32:39;103377.84;;;4.97;100.00
69784;BME280;57054;51.978;4.498;2023-02-14T10:41:04;103376.56;;;5.17;100.00
69784;BME280;57054;51.978;4.498;2023-02-14T10:43:39;103373.22;;;5.23;100.00
69784;BME280;57054;51.978;4.498;2023-02-14T10:46:28;103363.91;;;5.31;100.00
69784;BME280;57054;51.978;4.498;2023-02-14T10:49:00;103362.34;;;5.39;100.00
69784;BME280;57054;51.978;4.498;2023-02-14T10:51:45;103359.88;;;5.46;100.00
69784;BME280;57054;51.978;4.498;2023-02-14T10:56:59;103362.81;;;5.63;100.00
69784;BME280;57054;51.978;4.498;2023-02-14T10:59:45;103356.00;;;5.68;100.00
69784;BME280;57054;51.978;4.498;2023-02-14T11:02:15;103358.66;;;5.72;100.00
69784;BME280;57054;51.978;4.498;2023-02-14T11:04:42;103353.53;;;5.75;100.00
69784;BME280;57054;51.978;4.498;2023-02-14T11:07:26;103357.16;;;5.82;100.00
69784;BME280;57054;51.978;4.498;2023-02-14T11:09:51;103348.53;;;5.86;100.00
69784;BME280;57054;51.978;4.498;2023-02-14T11:12:34;103347.84;;;5.95;100.00
69784;BME280;57054;51.978;4.498;2023-02-14T11:15:22;103346.28;;;6.03;100.00
69784;BME280;57054;51.978;4.498;2023-02-14T11:17:49;103339.50;;;6.11;100.00
69784;BME280;57054;51.978;4.498;2023-02-14T11:22:42;103340.56;;;6.23;100.00
69784;BME280;57054;51.978;4.498;2023-02-14T11:25:25;103338.94;;;6.28;100.00
69784;BME280;57054;51.978;4.498;2023-02-14T11:28:02;103332.06;;;6.34;100.00
69784;BME280;57054;51.978;4.498;2023-02-14T11:30:39;103330.50;;;6.43;100.00
69784;BME280;57054;51.978;4.498;2023-02-14T11:33:22;103335.81;;;6.50;100.00
69784;BME280;57054;51.978;4.498;2023-02-14T11:35:53;103330.72;;;6.58;100.00
69784;BME280;57054;51.978;4.498;2023-02-14T11:38:34;103322.13;;;6.64;100.00
69784;BME280;57054;51.978;4.498;2023-02-14T11:41:01;103317.88;;;6.69;100.00
69784;BME280;57054;51.978;4.498;2023-02-14T11:43:48;103322.28;;;6.73;100.00
69784;BME280;57054;51.978;4.498;2023-02-14T11:51:25;103294.78;;;6.92;100.00
69784;BME280;57054;51.978;4.498;2023-02-14T11:53:53;103287.88;;;6.96;100.00
69784;BME280;57054;51.978;4.498;2023-02-14T11:56:43;103284.50;;;7.03;100.00
69784;BME280;57054;51.978;4.498;2023-02-14T11:59:11;103284.53;;;7.07;99.88
69784;BME280;57054;51.978;4.498;2023-02-14T12:01:44;103280.31;;;7.14;100.00
69784;BME280;57054;51.978;4.498;2023-02-14T12:04:17;103281.25;;;7.19;98.34
69784;BME280;57054;51.978;4.498;2023-02-14T12:06:43;103278.69;;;7.25;98.74
69784;BME280;57054;51.978;4.498;2023-02-14T12:14:24;103276.25;;;7.39;98.17
69784;BME280;57054;51.978;4.498;2023-02-14T12:20:01;103266.00;;;7.53;98.16
69784;BME280;57054;51.978;4.498;2023-02-14T12:22:36;103266.91;;;7.60;97.11
69784;BME280;57054;51.978;4.498;2023-02-14T12:25:11;103261.75;;;7.63;94.67
69784;BME280;57054;51.978;4.498;2023-02-14T12:27:46;103261.81;;;7.71;95.68
69784;BME280;57054;51.978;4.498;2023-02-14T12:30:20;103254.94;;;7.77;95.84
69784;BME280;57054;51.978;4.498;2023-02-14T12:32:55;103250.63;;;7.84;95.93
69784;BME280;57054;51.978;4.498;2023-02-14T12:35:30;103243.72;;;7.87;94.44
69784;BME280;57054;51.978;4.498;2023-02-14T12:41:15;103242.09;;;8.00;94.78
69784;BME280;57054;51.978;4.498;2023-02-14T12:43:46;103229.94;;;8.04;93.93
69784;BME280;57054;51.978;4.498;2023-02-14T12:57:53;103227.50;;;8.22;94.71
69784;BME280;57054;51.978;4.498;2023-02-14T13:00:38;103216.19;;;8.26;92.25
69784;BME280;57054;51.978;4.498;2023-02-14T13:03:40;103210.16;;;8.34;90.28
69784;BME280;57054;51.978;4.498;2023-02-14T13:06:44;103207.63;;;8.43;90.09
69784;BME280;57054;51.978;4.498;2023-02-14T13:12:06;103206.81;;;8.52;90.65
69784;BME280;57054;51.978;4.498;2023-02-14T13:22:50;103195.56;;;8.67;89.57
69784;BME280;57054;51.978;4.498;2023-02-14T13:25:26;103186.00;;;8.69;90.48
69784;BME280;57054;51.978;4.498;2023-02-14T13:27:57;103191.28;;;8.73;90.11
69784;BME280;57054;51.978;4.498;2023-02-14T13:30:29;103189.53;;;8.77;91.06
69784;BME280;57054;51.978;4.498;2023-02-14T13:32:58;103183.44;;;8.78;91.37
69784;BME280;57054;51.978;4.498;2023-02-14T13:35:27;103184.28;;;8.78;91.35
69784;BME280;57054;51.978;4.498;2023-02-14T13:37:58;103186.03;;;8.78;89.88
69784;BME280;57054;51.978;4.498;2023-02-14T13:40:26;103184.31;;;8.77;88.25
69784;BME280;57054;51.978;4.498;2023-02-14T13:42:54;103179.09;;;8.80;88.51
69784;BME280;57054;51.978;4.498;2023-02-14T13:55:57;103169.59;;;8.99;87.89
69784;BME280;57054;51.978;4.498;2023-02-14T13:58:23;103175.69;;;9.02;86.63
69784;BME280;57054;51.978;4.498;2023-02-14T14:00:54;103169.59;;;9.03;85.54
69784;BME280;57054;51.978;4.498;2023-02-14T14:06:11;103176.59;;;9.06;85.86
69784;BME280;57054;51.978;4.498;2023-02-14T14:16:18;103169.59;;;9.13;85.37
69784;BME280;57054;51.978;4.498;2023-02-14T14:18:45;103171.34;;;9.12;84.93
69784;BME280;57054;51.978;4.498;2023-02-14T14:21:21;103163.50;;;9.12;84.69
69784;BME280;57054;51.978;4.498;2023-02-14T14:24:23;103154.81;;;9.12;85.57
69784;BME280;57054;51.978;4.498;2023-02-14T14:29:36;103163.50;;;9.11;85.68
69784;BME280;57054;51.978;4.498;2023-02-14T14:32:08;103160.91;;;9.12;85.55
69784;BME280;57054;51.978;4.498;2023-02-14T14:34:34;103156.53;;;9.13;85.08
69784;BME280;57054;51.978;4.498;2023-02-14T14:37:01;103160.03;;;9.15;85.02
69784;BME280;57054;51.978;4.498;2023-02-14T14:39:29;103163.53;;;9.20;85.67
69784;BME280;57054;51.978;4.498;2023-02-14T14:42:07;103149.59;;;9.22;84.96
69784;BME280;57054;51.978;4.498;2023-02-14T14:44:35;103156.56;;;9.25;85.24
69784;BME280;57054;51.978;4.498;2023-02-14T14:47:02;103149.59;;;9.27;85.62
69784;BME280;57054;51.978;4.498;2023-02-14T14:49:28;103149.59;;;9.27;85.62
69784;BME280;57054;51.978;4.498;2023-02-14T14:51:55;103141.75;;;9.29;85.09
69784;BME280;57054;51.978;4.498;2023-02-14T14:54:22;103152.22;;;9.29;85.90
69784;BME280;57054;51.978;4.498;2023-02-14T14:56:58;103146.13;;;9.28;85.90
69784;BME280;57054;51.978;4.498;2023-02-14T14:59:31;103141.75;;;9.27;85.44
69784;BME280;57054;51.978;4.498;2023-02-14T15:02:02;103147.84;;;9.29;85.15
69784;BME280;57054;51.978;4.498;2023-02-14T15:04:32;103147.84;;;9.29;85.38
69784;BME280;57054;51.978;4.498;2023-02-14T15:07:20;103138.28;;;9.28;85.11
69784;BME280;57054;51.978;4.498;2023-02-14T15:09:48;103147.00;;;9.29;85.15
69784;BME280;57054;51.978;4.498;2023-02-14T15:12:16;103140.00;;;9.29;84.47
69784;BME280;57054;51.978;4.498;2023-02-14T15:15:13;103140.91;;;9.30;84.46
69784;BME280;57054;51.978;4.498;2023-02-14T15:17:41;103136.53;;;9.30;84.34
69784;BME280;57054;51.978;4.498;2023-02-14T15:20:19;103140.00;;;9.31;84.26